createdAt,value
2019-01-28T00:00:58.441Z,97.88
2019-01-28T00:01:58.447Z,97.97
2019-01-28T00:03:51.347Z,98.63
2019-01-28T00:04:51.350Z,98.54
2019-01-28T00:06:44.249Z,98.82
2019-01-28T00:07:44.263Z,98.82
2019-01-28T00:09:37.191Z,98.44
2019-01-28T00:10:37.168Z,98.92
2019-01-28T00:12:30.058Z,98.73
2019-01-28T00:13:30.071Z,98.44
2019-01-28T00:15:22.968Z,98.92
2019-01-28T00:16:22.972Z,99.01
2019-01-28T00:18:15.865Z,99.68
2019-01-28T00:19:15.878Z,99.68
2019-01-28T00:21:08.782Z,98.78
2019-01-28T00:22:08.789Z,98.78
2019-01-28T00:24:01.761Z,98.16
2019-01-28T00:25:01.691Z,98.63
2019-01-28T00:26:54.589Z,98.44
2019-01-28T00:27:54.592Z,98.82
2019-01-28T00:29:47.495Z,98.82
2019-01-28T00:30:47.496Z,98.82
2019-01-28T00:32:40.386Z,98.92
2019-01-28T00:33:40.400Z,98.92
2019-01-28T00:35:33.300Z,98.16
2019-01-28T00:36:33.305Z,98.35
2019-01-28T00:38:26.200Z,98.73
2019-01-28T00:39:26.210Z,98.82
2019-01-28T00:41:19.602Z,98.25
2019-01-28T00:42:19.608Z,98.07
2019-01-28T00:44:12.503Z,98.07
2019-01-28T00:45:12.515Z,98.35
2019-01-28T00:47:05.418Z,98.25
2019-01-28T00:48:05.419Z,98.44
2019-01-28T00:49:58.311Z,98.02
2019-01-28T00:50:58.321Z,97.69
2019-01-28T00:52:51.220Z,97.74
2019-01-28T00:53:51.226Z,97.97
2019-01-28T00:55:44.126Z,97.97
2019-01-28T00:56:44.131Z,97.97
2019-01-28T00:58:37.020Z,97.83
2019-01-28T00:59:37.032Z,97.36
2019-01-28T01:01:29.932Z,97.45
2019-01-28T01:02:29.937Z,97.31
2019-01-28T01:04:22.827Z,97.45
2019-01-28T01:05:22.839Z,97.36
2019-01-28T01:07:15.739Z,97.36
2019-01-28T01:08:15.745Z,97.45
2019-01-28T01:10:08.635Z,97.17
2019-01-28T01:11:08.648Z,97.50
2019-01-28T01:13:01.550Z,97.26
2019-01-28T01:14:01.552Z,97.45
2019-01-28T01:15:54.640Z,97.40
2019-01-28T01:16:54.460Z,97.26
2019-01-28T01:18:47.352Z,96.78
2019-01-28T01:19:47.366Z,96.88
2019-01-28T01:21:40.262Z,96.50
2019-01-28T01:22:40.268Z,96.41
2019-01-28T01:24:33.160Z,96.78
2019-01-28T01:25:33.172Z,97.07
2019-01-28T01:27:26.073Z,96.03
2019-01-28T01:28:26.078Z,96.31
2019-01-28T01:30:18.970Z,95.84
2019-01-28T01:31:18.981Z,95.93
2019-01-28T01:33:11.886Z,96.12
2019-01-28T01:34:11.888Z,96.41
2019-01-28T01:36:04.783Z,96.31
2019-01-28T01:37:04.795Z,96.22
2019-01-28T01:38:57.694Z,96.31
2019-01-28T01:39:57.698Z,96.12
2019-01-28T01:41:50.629Z,97.07
2019-01-28T01:42:50.606Z,96.78
2019-01-28T01:44:43.576Z,96.97
2019-01-28T01:45:43.511Z,97.45
2019-01-28T01:47:36.406Z,96.78
2019-01-28T01:48:36.413Z,96.97
2019-01-28T01:50:29.302Z,97.45
2019-01-28T01:51:29.315Z,97.50
2019-01-28T01:53:22.213Z,97.97
2019-01-28T01:54:22.219Z,97.97
2019-01-28T01:56:15.111Z,97.78
2019-01-28T01:57:15.123Z,98.16
2019-01-28T01:59:08.020Z,98.44
2019-01-28T02:00:08.027Z,98.44
2019-01-28T02:02:01.009Z,98.35
2019-01-28T02:03:00.934Z,98.44
2019-01-28T02:04:53.830Z,98.54
2019-01-28T02:05:53.836Z,98.35
2019-01-28T02:07:46.734Z,98.44
2019-01-28T02:08:46.741Z,98.25
2019-01-28T02:10:39.629Z,98.35
2019-01-28T02:11:39.643Z,98.44
2019-01-28T02:13:32.546Z,98.63
2019-01-28T02:14:32.549Z,98.44
2019-01-28T02:16:25.443Z,98.25
2019-01-28T02:17:25.454Z,98.16
2019-01-28T02:19:18.353Z,98.73
2019-01-28T02:20:18.360Z,98.73
2019-01-28T02:22:11.250Z,99.11
2019-01-28T02:23:11.263Z,99.11
2019-01-28T02:25:04.164Z,98.92
2019-01-28T02:26:04.166Z,98.63
2019-01-28T02:27:57.061Z,98.25
2019-01-28T02:28:57.073Z,98.25
2019-01-28T02:30:49.988Z,98.73
2019-01-28T02:31:49.978Z,98.54
2019-01-28T02:33:42.875Z,98.54
2019-01-28T02:34:42.883Z,99.01
2019-01-28T02:36:35.785Z,99.49
2019-01-28T02:37:35.789Z,99.11
2019-01-28T02:39:28.688Z,99.01
2019-01-28T02:40:28.694Z,98.92
2019-01-28T02:42:21.586Z,99.20
2019-01-28T02:43:21.598Z,99.39
2019-01-28T02:45:14.497Z,99.20
2019-01-28T02:46:14.502Z,99.58
2019-01-28T02:48:07.395Z,99.11
2019-01-28T02:49:07.403Z,99.49
2019-01-28T02:51:00.303Z,99.58
2019-01-28T02:52:00.308Z,99.01
2019-01-28T02:53:53.199Z,99.68
2019-01-28T02:54:53.211Z,98.73
2019-01-28T02:56:46.112Z,98.63
2019-01-28T02:57:46.119Z,98.92
2019-01-28T02:59:39.010Z,98.44
2019-01-28T03:00:39.023Z,98.54
2019-01-28T03:02:31.919Z,98.25
2019-01-28T03:03:31.923Z,97.78
2019-01-28T03:05:24.820Z,97.97
2019-01-28T03:06:24.826Z,97.97
2019-01-28T03:08:17.723Z,97.97
2019-01-28T03:09:17.735Z,97.40
2019-01-28T03:11:10.635Z,97.88
2019-01-28T03:12:10.636Z,97.59
2019-01-28T03:14:03.528Z,97.21
2019-01-28T03:15:03.539Z,97.40
2019-01-28T03:16:56.455Z,97.88
2019-01-28T03:17:56.446Z,97.97
2019-01-28T03:19:49.340Z,97.78
2019-01-28T03:20:49.352Z,97.88
2019-01-28T03:22:42.252Z,97.59
2019-01-28T03:23:42.256Z,97.59
2019-01-28T03:25:35.150Z,97.78
2019-01-28T03:26:35.162Z,97.78
2019-01-28T03:28:28.061Z,98.44
2019-01-28T03:29:28.083Z,98.44
2019-01-28T03:31:20.957Z,98.54
2019-01-28T03:32:20.971Z,98.07
2019-01-28T03:34:13.868Z,98.73
2019-01-28T03:35:13.872Z,98.54
2019-01-28T03:37:06.773Z,99.01
2019-01-28T03:38:06.778Z,98.82
2019-01-28T03:39:59.667Z,98.92
2019-01-28T03:40:59.680Z,99.68
2019-01-28T03:42:52.582Z,99.58
2019-01-28T03:43:52.584Z,98.92
2019-01-28T03:45:45.476Z,99.11
2019-01-28T03:46:45.487Z,98.92
2019-01-28T03:48:38.387Z,99.49
2019-01-28T03:49:38.391Z,99.49
2019-01-28T03:51:31.281Z,99.39
2019-01-28T03:52:31.294Z,99.20
2019-01-28T03:54:24.192Z,99.11
2019-01-28T03:55:24.195Z,99.58
2019-01-28T03:57:17.088Z,98.73
2019-01-28T03:58:17.099Z,99.30
2019-01-28T04:00:10.000Z,99.39
2019-01-28T04:01:10.004Z,99.58
2019-01-28T04:03:02.915Z,99.49
2019-01-28T04:04:02.915Z,99.01
2019-01-28T04:05:55.799Z,99.30
2019-01-28T04:06:55.814Z,99.49
2019-01-28T04:08:48.711Z,99.96
2019-01-28T04:09:48.716Z,99.58
2019-01-28T04:11:41.613Z,99.96
2019-01-28T04:12:41.622Z,99.77
2019-01-28T04:14:34.520Z,99.99
2019-01-28T04:15:34.523Z,99.20
2019-01-28T04:17:27.428Z,99.20
2019-01-28T04:18:27.429Z,99.01
2019-01-28T04:20:20.329Z,99.49
2019-01-28T04:21:20.332Z,99.20
2019-01-28T04:23:13.231Z,99.39
2019-01-28T04:24:13.235Z,99.49
2019-01-28T04:26:06.144Z,99.58
2019-01-28T04:27:06.140Z,99.20
2019-01-28T04:28:59.038Z,99.20
2019-01-28T04:29:59.046Z,99.20
2019-01-28T04:31:51.935Z,99.20
2019-01-28T04:32:51.947Z,99.99
2019-01-28T04:34:44.850Z,99.87
2019-01-28T04:35:44.849Z,99.99
2019-01-28T04:37:37.741Z,99.99
2019-01-28T04:38:37.752Z,99.68
2019-01-28T04:40:30.670Z,99.96
2019-01-28T04:41:30.675Z,99.96
2019-01-28T04:43:23.564Z,99.68
2019-01-28T04:44:23.577Z,99.77
2019-01-28T04:46:16.477Z,99.99
2019-01-28T04:47:16.481Z,99.99
2019-01-28T04:49:09.375Z,99.99
2019-01-28T04:50:09.385Z,99.99
2019-01-28T04:52:02.283Z,99.99
2019-01-28T04:53:02.294Z,99.99
2019-01-28T04:54:55.186Z,99.99
2019-01-28T04:55:55.188Z,99.99
2019-01-28T04:57:48.086Z,99.99
2019-01-28T04:58:49.758Z,99.99
2019-01-28T05:00:40.995Z,99.99
2019-01-28T05:01:40.999Z,99.99
2019-01-28T05:03:33.886Z,99.99
2019-01-28T05:04:33.899Z,99.99
2019-01-28T05:06:26.806Z,99.99
2019-01-28T05:07:26.806Z,99.99
2019-01-28T05:09:19.696Z,99.99
2019-01-28T05:10:19.706Z,99.99
2019-01-28T05:12:12.607Z,99.99
2019-01-28T05:13:12.609Z,99.99
2019-01-28T05:15:05.505Z,99.99
2019-01-28T05:16:05.515Z,99.99
2019-01-28T05:17:58.413Z,99.99
2019-01-28T05:18:58.416Z,99.99
2019-01-28T05:20:51.315Z,99.99
2019-01-28T05:21:51.322Z,99.99
2019-01-28T05:23:44.211Z,99.99
2019-01-28T05:24:44.222Z,99.99
2019-01-28T05:26:37.123Z,99.99
2019-01-28T05:27:37.126Z,99.99
2019-01-28T05:29:30.016Z,99.99
2019-01-28T05:30:30.029Z,99.99
2019-01-28T05:32:22.924Z,99.99
2019-01-28T05:33:22.927Z,99.99
2019-01-28T05:35:15.820Z,99.99
2019-01-28T05:36:15.834Z,99.99
2019-01-28T05:38:08.733Z,99.99
2019-01-28T05:39:08.736Z,99.99
2019-01-28T05:41:01.634Z,99.99
2019-01-28T05:42:01.640Z,99.99
2019-01-28T05:43:54.606Z,99.99
2019-01-28T05:44:54.658Z,99.99
2019-01-28T05:46:47.478Z,99.99
2019-01-28T05:47:47.483Z,99.99
2019-01-28T05:49:40.374Z,99.99
2019-01-28T05:50:40.386Z,99.99
2019-01-28T05:52:33.281Z,99.99
2019-01-28T05:53:33.289Z,99.99
2019-01-28T05:55:26.238Z,99.99
2019-01-28T05:56:26.269Z,99.99
2019-01-28T05:58:19.128Z,99.99
2019-01-28T05:59:19.135Z,99.99
2019-01-28T06:01:12.020Z,99.99
2019-01-28T06:02:12.032Z,99.99
2019-01-28T06:04:04.933Z,99.99
2019-01-28T06:05:04.935Z,99.99
2019-01-28T06:06:57.837Z,99.99
2019-01-28T06:07:57.840Z,99.99
2019-01-28T06:09:50.735Z,99.99
2019-01-28T06:10:50.746Z,99.99
2019-01-28T06:12:43.643Z,99.99
2019-01-28T06:13:43.645Z,99.99
2019-01-28T06:15:36.540Z,99.99
2019-01-28T06:16:36.548Z,99.99
2019-01-28T06:18:29.447Z,99.99
2019-01-28T06:19:29.452Z,99.99
2019-01-28T06:21:22.347Z,99.99
2019-01-28T06:22:22.353Z,99.99
2019-01-28T06:24:15.253Z,99.99
2019-01-28T06:25:15.257Z,99.99
2019-01-28T06:27:08.153Z,99.99
2019-01-28T06:28:08.158Z,99.99
2019-01-28T06:30:01.048Z,99.99
2019-01-28T06:31:01.059Z,99.99
2019-01-28T06:32:53.958Z,99.99
2019-01-28T06:33:53.962Z,99.99
2019-01-28T06:35:46.856Z,99.99
2019-01-28T06:36:46.867Z,99.99
2019-01-28T06:38:39.765Z,99.99
2019-01-28T06:39:39.771Z,99.99
2019-01-28T06:41:32.661Z,99.99
2019-01-28T06:42:32.670Z,99.99
2019-01-28T06:44:25.571Z,99.99
2019-01-28T06:45:25.574Z,99.99
2019-01-28T06:47:18.474Z,99.99
2019-01-28T06:48:18.480Z,99.99
2019-01-28T06:50:11.366Z,99.99
2019-01-28T06:51:11.377Z,99.99
2019-01-28T06:53:04.276Z,99.99
2019-01-28T06:54:04.279Z,99.99
2019-01-28T06:55:57.177Z,99.99
2019-01-28T06:56:57.182Z,99.99
2019-01-28T06:58:50.086Z,99.99
2019-01-28T06:59:50.089Z,99.99
2019-01-28T07:01:43.023Z,99.99
2019-01-28T07:02:42.992Z,99.99
2019-01-28T07:04:35.890Z,99.99
2019-01-28T07:05:35.894Z,99.99
2019-01-28T07:07:28.793Z,99.99
2019-01-28T07:08:28.797Z,99.99
2019-01-28T07:10:21.701Z,99.99
2019-01-28T07:11:21.702Z,99.99
2019-01-28T07:13:14.615Z,99.99
2019-01-28T07:14:14.604Z,99.99
2019-01-28T07:16:07.496Z,99.99
2019-01-28T07:17:07.507Z,99.99
2019-01-28T07:19:00.409Z,99.99
2019-01-28T07:20:00.413Z,99.99
2019-01-28T07:21:53.304Z,99.99
2019-01-28T07:22:53.316Z,99.99
2019-01-28T07:24:46.214Z,99.99
2019-01-28T07:25:46.220Z,99.99
2019-01-28T07:27:39.116Z,99.99
2019-01-28T07:28:39.121Z,99.99
2019-01-28T07:30:32.014Z,99.99
2019-01-28T07:31:32.024Z,99.99
2019-01-28T07:33:25.006Z,99.99
2019-01-28T07:34:24.925Z,99.99
2019-01-28T07:36:17.819Z,99.99
2019-01-28T07:37:17.830Z,99.99
2019-01-28T07:39:10.730Z,99.99
2019-01-28T07:40:10.734Z,99.99
2019-01-28T07:42:03.654Z,99.99
2019-01-28T07:43:03.639Z,99.99
2019-01-28T07:44:56.531Z,99.99
2019-01-28T07:45:56.539Z,99.99
2019-01-28T07:47:49.442Z,99.99
2019-01-28T07:48:49.447Z,99.99
2019-01-28T07:50:42.336Z,99.99
2019-01-28T07:51:42.348Z,99.99
2019-01-28T07:53:35.250Z,99.99
2019-01-28T07:54:35.256Z,99.99
2019-01-28T07:56:28.152Z,99.99
2019-01-28T07:57:28.160Z,99.99
2019-01-28T07:59:21.056Z,99.99
2019-01-28T08:00:21.065Z,99.99
2019-01-28T08:02:13.979Z,99.99
2019-01-28T08:03:13.965Z,99.99
2019-01-28T08:05:06.855Z,99.99
2019-01-28T08:06:06.868Z,99.99
2019-01-28T08:07:59.768Z,99.99
2019-01-28T08:08:59.772Z,99.99
2019-01-28T08:10:52.662Z,99.99
2019-01-28T08:11:52.674Z,99.99
2019-01-28T08:13:45.572Z,99.99
2019-01-28T08:14:45.576Z,99.99
2019-01-28T08:16:38.468Z,99.99
2019-01-28T08:17:38.480Z,99.99
2019-01-28T08:19:31.383Z,99.99
2019-01-28T08:20:31.385Z,99.99
2019-01-28T08:22:24.285Z,99.99
2019-01-28T08:23:24.288Z,99.99
2019-01-28T08:25:17.180Z,99.99
2019-01-28T08:26:17.194Z,99.99
2019-01-28T08:28:10.094Z,99.99
2019-01-28T08:29:10.098Z,99.99
2019-01-28T08:31:02.987Z,99.99
2019-01-28T08:32:03.001Z,99.99
2019-01-28T08:33:55.901Z,99.99
2019-01-28T08:34:55.904Z,99.99
2019-01-28T08:36:48.795Z,99.99
2019-01-28T08:37:48.809Z,99.99
2019-01-28T08:39:42.945Z,99.99
2019-01-28T08:40:41.713Z,99.99
2019-01-28T08:42:34.612Z,99.99
2019-01-28T08:43:34.619Z,99.99
2019-01-28T08:45:27.511Z,99.99
2019-01-28T08:46:30.310Z,99.99
2019-01-28T08:48:20.420Z,99.99
2019-01-28T08:49:20.423Z,99.99
2019-01-28T08:51:13.316Z,99.99
2019-01-28T08:52:13.332Z,99.99
2019-01-28T08:54:06.234Z,99.99
2019-01-28T08:55:06.238Z,99.99
2019-01-28T08:56:59.130Z,99.99
2019-01-28T08:57:59.143Z,99.99
2019-01-28T08:59:52.043Z,99.99
2019-01-28T09:00:52.045Z,99.99
2019-01-28T09:02:44.946Z,99.99
2019-01-28T09:03:44.948Z,99.99
2019-01-28T09:05:37.843Z,99.99
2019-01-28T09:06:37.858Z,99.99
2019-01-28T09:08:30.753Z,99.99
2019-01-28T09:09:30.759Z,99.99
2019-01-28T09:11:23.650Z,99.99
2019-01-28T09:12:23.664Z,99.99
2019-01-28T09:14:16.564Z,99.99
2019-01-28T09:15:16.567Z,99.99
2019-01-28T09:17:09.462Z,99.99
2019-01-28T09:18:09.473Z,99.99
2019-01-28T09:20:02.370Z,99.99
2019-01-28T09:21:02.374Z,99.99
2019-01-28T09:22:55.276Z,99.99
2019-01-28T09:23:55.279Z,99.99
2019-01-28T09:25:48.176Z,99.99
2019-01-28T09:26:48.181Z,99.99
2019-01-28T09:28:41.083Z,99.99
2019-01-28T09:29:41.089Z,99.99
2019-01-28T09:31:33.980Z,99.99
2019-01-28T09:32:33.992Z,99.99
2019-01-28T09:34:26.895Z,99.99
2019-01-28T09:35:26.901Z,99.99
2019-01-28T09:37:19.790Z,99.99
2019-01-28T09:38:19.803Z,99.99
2019-01-28T09:40:12.703Z,99.99
2019-01-28T09:41:12.709Z,99.99
2019-01-28T09:43:05.614Z,99.99
2019-01-28T09:44:05.615Z,99.99
2019-01-28T09:45:58.505Z,99.99
2019-01-28T09:46:58.518Z,99.99
2019-01-28T09:48:51.420Z,99.99
2019-01-28T09:49:51.426Z,99.99
2019-01-28T09:51:44.320Z,99.99
2019-01-28T09:52:44.337Z,99.99
2019-01-28T09:54:37.234Z,99.99
2019-01-28T09:55:37.234Z,99.99
2019-01-28T09:57:30.129Z,99.99
2019-01-28T09:58:30.142Z,99.99
2019-01-28T10:00:23.045Z,99.99
2019-01-28T10:01:23.046Z,99.99
2019-01-28T10:03:15.940Z,99.99
2019-01-28T10:04:15.952Z,99.99
2019-01-28T10:06:08.855Z,99.99
2019-01-28T10:07:08.856Z,99.99
2019-01-28T10:09:01.758Z,99.99
2019-01-28T10:10:01.762Z,99.99
2019-01-28T10:11:54.652Z,99.99
2019-01-28T10:12:54.665Z,99.99
2019-01-28T10:14:47.566Z,99.99
2019-01-28T10:15:47.570Z,99.99
2019-01-28T10:17:40.463Z,99.99
2019-01-28T10:18:41.902Z,99.99
2019-01-28T10:20:33.376Z,99.99
2019-01-28T10:21:33.382Z,99.99
2019-01-28T10:23:26.280Z,99.99
2019-01-28T10:24:26.288Z,99.99
2019-01-28T10:26:19.188Z,99.99
2019-01-28T10:27:19.194Z,99.99
2019-01-28T10:29:12.091Z,99.99
2019-01-28T10:30:12.096Z,99.99
2019-01-28T10:32:04.988Z,99.99
2019-01-28T10:33:04.998Z,99.99
2019-01-28T10:34:57.902Z,99.99
2019-01-28T10:35:57.906Z,99.99
2019-01-28T10:37:50.799Z,99.99
2019-01-28T10:38:50.811Z,99.99
2019-01-28T10:40:43.711Z,99.99
2019-01-28T10:41:43.718Z,99.99
2019-01-28T10:43:36.613Z,99.99
2019-01-28T10:44:36.619Z,99.99
2019-01-28T10:46:29.519Z,99.99
2019-01-28T10:47:29.525Z,99.99
2019-01-28T10:49:22.423Z,99.99
2019-01-28T10:50:22.431Z,99.99
2019-01-28T10:52:15.327Z,99.99
2019-01-28T10:53:15.334Z,99.99
2019-01-28T10:55:08.235Z,99.99
2019-01-28T10:56:08.237Z,99.99
2019-01-28T10:58:01.130Z,99.99
2019-01-28T10:59:01.145Z,99.99
2019-01-28T11:00:54.042Z,99.99
2019-01-28T11:01:54.047Z,99.99
2019-01-28T11:03:46.959Z,99.99
2019-01-28T11:04:46.953Z,99.99
2019-01-28T11:06:39.848Z,99.99
2019-01-28T11:07:39.860Z,99.99
2019-01-28T11:09:32.769Z,99.99
2019-01-28T11:10:32.817Z,99.99
2019-01-28T11:12:25.655Z,99.99
2019-01-28T11:13:25.667Z,99.99
2019-01-28T11:15:18.591Z,99.99
2019-01-28T11:16:18.571Z,99.99
2019-01-28T11:18:11.536Z,99.99
2019-01-28T11:19:11.533Z,99.99
2019-01-28T11:21:04.506Z,99.99
2019-01-28T11:22:04.468Z,99.99
2019-01-28T11:23:57.287Z,99.99
2019-01-28T11:24:57.289Z,99.99
2019-01-28T11:26:50.219Z,99.99
2019-01-28T11:27:50.270Z,99.99
2019-01-28T11:29:43.223Z,99.99
2019-01-28T11:30:43.187Z,99.99
2019-01-28T11:32:36.029Z,99.99
2019-01-28T11:33:39.455Z,99.99
2019-01-28T11:35:28.918Z,99.99
2019-01-28T11:36:28.998Z,99.99
2019-01-28T11:38:21.826Z,99.99
2019-01-28T11:39:21.926Z,99.99
2019-01-28T11:41:14.750Z,99.99
2019-01-28T11:42:14.719Z,99.99
2019-01-28T11:44:07.729Z,99.99
2019-01-28T11:45:07.734Z,99.99
2019-01-28T11:47:00.569Z,99.99
2019-01-28T11:48:00.661Z,99.99
2019-01-28T11:49:53.475Z,99.99
2019-01-28T11:50:56.000Z,99.99
2019-01-28T11:52:46.323Z,99.99
2019-01-28T11:53:46.334Z,99.99
2019-01-28T11:55:39.263Z,99.99
2019-01-28T11:56:39.238Z,99.99
2019-01-28T11:58:32.127Z,99.99
2019-01-28T11:59:32.142Z,99.99
2019-01-28T12:01:25.116Z,99.99
2019-01-28T12:02:25.045Z,99.99
2019-01-28T12:04:19.116Z,99.99
2019-01-28T12:05:17.947Z,99.99
2019-01-28T12:07:10.837Z,99.99
2019-01-28T12:08:10.851Z,99.99
2019-01-28T12:10:03.751Z,99.99
2019-01-28T12:11:03.755Z,99.99
2019-01-28T12:12:56.729Z,99.99
2019-01-28T12:13:56.683Z,99.99
2019-01-28T12:15:49.588Z,99.99
2019-01-28T12:16:49.589Z,99.99
2019-01-28T12:18:42.483Z,99.99
2019-01-28T12:19:42.497Z,99.99
2019-01-28T12:21:35.445Z,99.99
2019-01-28T12:22:35.403Z,99.99
2019-01-28T12:24:28.302Z,99.99
2019-01-28T12:25:28.307Z,99.99
2019-01-28T12:27:21.195Z,99.99
2019-01-28T12:28:21.208Z,99.99
2019-01-28T12:30:14.163Z,99.99
2019-01-28T12:31:14.114Z,99.99
2019-01-28T12:33:07.004Z,99.99
2019-01-28T12:34:07.017Z,99.99
2019-01-28T12:35:59.920Z,99.99
2019-01-28T12:36:59.925Z,99.99
2019-01-28T12:38:52.815Z,99.99
2019-01-28T12:39:52.827Z,99.91
2019-01-28T12:41:45.729Z,99.99
2019-01-28T12:42:45.735Z,99.99
2019-01-28T12:44:38.633Z,99.99
2019-01-28T12:45:38.639Z,99.99
2019-01-28T12:47:31.532Z,99.21
2019-01-28T12:48:31.544Z,99.68
2019-01-28T12:50:24.459Z,98.16
2019-01-28T12:51:24.452Z,97.41
2019-01-28T12:53:17.346Z,96.45
2019-01-28T12:54:17.408Z,96.45
2019-01-28T12:56:10.260Z,97.12
2019-01-28T12:57:10.286Z,97.41
2019-01-28T12:59:08.971Z,97.31
2019-01-28T13:00:03.269Z,97.50
2019-01-28T13:01:56.070Z,98.07
2019-01-28T13:02:56.073Z,97.60
2019-01-28T13:04:48.975Z,98.07
2019-01-28T13:05:48.981Z,97.41
2019-01-28T13:07:41.979Z,98.26
2019-01-28T13:08:41.890Z,97.88
2019-01-28T13:10:34.868Z,98.16
2019-01-28T13:11:34.807Z,98.16
2019-01-28T13:13:27.699Z,98.73
2019-01-28T13:14:27.771Z,98.16
2019-01-28T13:16:20.627Z,97.60
2019-01-28T13:17:20.633Z,97.88
2019-01-28T13:19:13.529Z,98.16
2019-01-28T13:20:13.541Z,98.26
2019-01-28T13:22:06.448Z,98.07
2019-01-28T13:23:06.450Z,98.54
2019-01-28T13:24:59.350Z,98.73
2019-01-28T13:25:59.357Z,97.78
2019-01-28T13:27:52.249Z,98.26
2019-01-28T13:28:52.262Z,98.64
2019-01-28T13:30:45.165Z,99.11
2019-01-28T13:31:45.171Z,98.83
2019-01-28T13:33:38.065Z,99.21
2019-01-28T13:34:38.079Z,99.21
2019-01-28T13:36:30.979Z,99.99
2019-01-28T13:37:32.595Z,99.99
2019-01-28T13:39:24.156Z,99.99
2019-01-28T13:40:23.891Z,99.99
2019-01-28T13:42:16.794Z,99.99
2019-01-28T13:43:16.799Z,99.99
2019-01-28T13:45:09.702Z,99.99
2019-01-28T13:46:09.708Z,99.99
2019-01-28T13:48:02.599Z,99.99
2019-01-28T13:49:02.614Z,99.99
2019-01-28T13:50:55.513Z,99.99
2019-01-28T13:51:55.517Z,99.99
2019-01-28T13:53:48.412Z,99.99
2019-01-28T13:54:48.426Z,99.99
2019-01-28T13:56:41.327Z,99.99
2019-01-28T13:57:41.339Z,99.99
2019-01-28T13:59:34.223Z,99.99
2019-01-28T14:00:34.238Z,99.99
2019-01-28T14:02:27.137Z,99.99
2019-01-28T14:03:27.152Z,99.99
2019-01-28T14:05:20.043Z,99.99
2019-01-28T14:06:20.047Z,99.99
2019-01-28T14:08:12.940Z,99.99
2019-01-28T14:09:12.951Z,99.99
2019-01-28T14:11:05.856Z,99.99
2019-01-28T14:12:05.855Z,99.99
2019-01-28T14:13:58.749Z,99.99
2019-01-28T14:14:58.763Z,99.99
2019-01-28T14:16:51.662Z,99.99
2019-01-28T14:17:51.666Z,99.99
2019-01-28T14:19:46.473Z,99.99
2019-01-28T14:20:44.569Z,99.99
2019-01-28T14:22:37.469Z,99.99
2019-01-28T14:23:37.474Z,99.99
2019-01-28T14:25:30.374Z,99.99
2019-01-28T14:26:30.385Z,99.99
2019-01-28T14:28:23.267Z,99.99
2019-01-28T14:29:23.279Z,99.99
2019-01-28T14:31:16.175Z,99.99
2019-01-28T14:32:16.180Z,99.99
2019-01-28T14:34:09.070Z,99.99
2019-01-28T14:35:09.082Z,99.99
2019-01-28T14:37:01.983Z,99.99
2019-01-28T14:38:03.710Z,99.99
2019-01-28T14:39:54.876Z,99.99
2019-01-28T14:40:54.888Z,99.99
2019-01-28T14:42:47.786Z,99.99
2019-01-28T14:43:47.787Z,99.99
2019-01-28T14:45:40.689Z,99.99
2019-01-28T14:46:40.691Z,99.99
2019-01-28T14:48:33.585Z,99.99
2019-01-28T14:49:33.595Z,99.99
2019-01-28T14:51:26.494Z,99.99
2019-01-28T14:52:26.496Z,99.99
2019-01-28T14:54:19.388Z,99.99
2019-01-28T14:55:19.397Z,99.99
2019-01-28T14:57:12.296Z,99.99
2019-01-28T14:58:16.504Z,99.99
2019-01-28T15:00:05.194Z,99.99
2019-01-28T15:01:05.203Z,99.99
2019-01-28T15:02:58.100Z,99.99
2019-01-28T15:03:58.104Z,99.99
2019-01-28T15:05:51.011Z,99.99
2019-01-28T15:06:51.005Z,99.99
2019-01-28T15:08:43.917Z,99.99
2019-01-28T15:09:43.979Z,99.99
2019-01-28T15:11:36.807Z,99.99
2019-01-28T15:12:44.141Z,99.99
2019-01-28T15:14:29.699Z,99.99
2019-01-28T15:15:29.711Z,99.99
2019-01-28T15:17:22.609Z,99.99
2019-01-28T15:18:22.614Z,99.99
2019-01-28T15:20:15.502Z,99.99
2019-01-28T15:21:15.519Z,99.99
2019-01-28T15:23:08.410Z,99.99
2019-01-28T15:24:08.414Z,99.99
2019-01-28T15:26:01.305Z,99.99
2019-01-28T15:27:01.312Z,99.99
2019-01-28T15:28:54.216Z,99.99
2019-01-28T15:29:54.218Z,99.99
2019-01-28T15:31:47.114Z,99.99
2019-01-28T15:32:47.159Z,99.99
2019-01-28T15:34:40.033Z,99.99
2019-01-28T15:35:40.023Z,99.99
2019-01-28T15:37:32.921Z,99.99
2019-01-28T15:38:32.924Z,99.99
2019-01-28T15:40:25.814Z,99.99
2019-01-28T15:41:25.827Z,99.99
2019-01-28T15:43:18.722Z,99.99
2019-01-28T15:44:18.727Z,99.99
2019-01-28T15:46:11.618Z,99.99
2019-01-28T15:47:11.629Z,99.99
2019-01-28T15:49:04.526Z,99.99
2019-01-28T15:50:10.530Z,99.99
2019-01-28T15:51:57.546Z,99.99
2019-01-28T15:52:57.428Z,99.99
2019-01-28T15:54:50.349Z,99.99
2019-01-28T15:55:50.330Z,99.99
2019-01-28T15:57:43.228Z,99.99
2019-01-28T15:58:43.228Z,99.99
2019-01-28T16:00:36.118Z,99.99
2019-01-28T16:01:36.128Z,99.99
2019-01-28T16:03:29.030Z,99.99
2019-01-28T16:04:29.031Z,99.99
2019-01-28T16:06:21.923Z,99.99
2019-01-28T16:07:21.933Z,99.99
2019-01-28T16:09:14.843Z,99.99
2019-01-28T16:10:14.834Z,99.99
2019-01-28T16:12:07.729Z,99.99
2019-01-28T16:13:07.732Z,99.99
2019-01-28T16:15:00.623Z,99.99
2019-01-28T16:16:00.888Z,99.99
2019-01-28T16:17:53.532Z,99.99
2019-01-28T16:18:53.536Z,99.99
2019-01-28T16:20:46.426Z,99.99
2019-01-28T16:21:46.435Z,99.99
2019-01-28T16:23:39.333Z,99.99
2019-01-28T16:24:39.335Z,99.99
2019-01-28T16:26:32.304Z,99.99
2019-01-28T16:27:32.239Z,99.99
2019-01-28T16:29:25.139Z,99.99
2019-01-28T16:30:26.544Z,99.99
2019-01-28T16:32:18.124Z,99.99
2019-01-28T16:33:18.095Z,99.99
2019-01-28T16:35:10.934Z,99.99
2019-01-28T16:36:10.945Z,99.99
2019-01-28T16:38:03.971Z,99.99
2019-01-28T16:39:03.847Z,99.99
2019-01-28T16:40:56.820Z,99.99
2019-01-28T16:41:56.746Z,99.99
2019-01-28T16:43:49.642Z,99.99
2019-01-28T16:44:49.646Z,99.99
2019-01-28T16:46:42.841Z,99.99
2019-01-28T16:47:42.558Z,99.99
2019-01-28T16:49:35.448Z,99.99
2019-01-28T16:50:35.448Z,99.99
2019-01-28T16:52:28.380Z,99.99
2019-01-28T16:53:28.356Z,99.99
2019-01-28T16:55:21.243Z,99.99
2019-01-28T16:56:21.253Z,99.99
2019-01-28T16:58:14.268Z,99.99
2019-01-28T16:59:14.211Z,99.99
2019-01-28T17:01:07.109Z,99.99
2019-01-28T17:02:07.120Z,99.99
2019-01-28T17:04:00.017Z,99.99
2019-01-28T17:05:00.020Z,99.99
2019-01-28T17:06:52.914Z,99.99
2019-01-28T17:07:52.925Z,99.99
2019-01-28T17:09:45.830Z,99.99
2019-01-28T17:10:45.830Z,99.99
2019-01-28T17:12:39.307Z,99.99
2019-01-28T17:13:39.306Z,99.99
2019-01-28T17:15:32.199Z,99.99
2019-01-28T17:16:32.201Z,99.99
2019-01-28T17:18:25.104Z,99.99
2019-01-28T17:19:25.104Z,99.99
2019-01-28T17:21:18.348Z,99.99
2019-01-28T17:22:18.007Z,99.99
2019-01-28T17:24:10.904Z,99.99
2019-01-28T17:25:11.047Z,99.99
2019-01-28T17:27:03.802Z,99.99
2019-01-28T17:28:03.812Z,99.99
2019-01-28T17:29:56.711Z,99.99
2019-01-28T17:30:56.710Z,99.99
2019-01-28T17:32:49.603Z,99.99
2019-01-28T17:33:49.613Z,99.99
2019-01-28T17:35:42.511Z,99.99
2019-01-28T17:36:42.513Z,99.99
2019-01-28T17:38:35.416Z,99.99
2019-01-28T17:39:35.415Z,99.99
2019-01-28T17:41:28.305Z,99.99
2019-01-28T17:42:28.317Z,99.99
2019-01-28T17:44:21.216Z,99.99
2019-01-28T17:45:21.248Z,99.99
2019-01-28T17:47:14.117Z,99.99
2019-01-28T17:48:14.113Z,99.99
2019-01-28T17:50:07.018Z,99.99
2019-01-28T17:51:07.016Z,99.99
2019-01-28T17:52:59.902Z,99.99
2019-01-28T17:53:59.968Z,99.99
2019-01-28T17:55:52.891Z,99.99
2019-01-28T17:56:52.870Z,99.99
2019-01-28T17:58:45.824Z,99.99
2019-01-28T17:59:45.778Z,99.99
2019-01-28T18:01:38.681Z,99.99
2019-01-28T18:02:38.676Z,99.99
2019-01-28T18:04:31.583Z,99.99
2019-01-28T18:05:31.575Z,99.99
2019-01-28T18:07:24.465Z,99.99
2019-01-28T18:08:24.474Z,99.99
2019-01-28T18:10:17.369Z,99.99
2019-01-28T18:11:17.412Z,99.99
2019-01-28T18:13:10.260Z,99.99
2019-01-28T18:14:10.269Z,99.99
2019-01-28T18:16:03.169Z,99.99
2019-01-28T18:17:03.169Z,99.99
2019-01-28T18:18:56.059Z,99.99
2019-01-28T18:19:56.070Z,99.99
2019-01-28T18:21:49.022Z,99.99
2019-01-28T18:22:48.971Z,99.99
2019-01-28T18:24:41.871Z,99.99
2019-01-28T18:25:41.872Z,99.99
2019-01-28T18:27:34.762Z,99.99
2019-01-28T18:28:34.773Z,99.99
2019-01-28T18:30:27.712Z,99.99
2019-01-28T18:31:27.677Z,99.99
2019-01-28T18:33:20.568Z,99.99